CYTZ

Toronto / City Centre Airport

Toronto, , Canada
METAR CYTZ 190800Z AUTO 24011KT 9SM CLR 06/02 A3016 RMK SLP217
Observed Flight Rules
Oct-19 @ 08:00 UTC (an hour ago) Visual Flight Rules
Wind Visibility Clouds
240° at 11 knots 9 miles
  • Clear skies
Temperatures Readings
Current 6°C / 43°F
Dewpoint 2°C / 36°F
Humidity 76%
Altimeter 30.16" Hg
Pressure 1021.7 hPa
Elevation 77
METAR CYTZ 190800Z AUTO 24011KT 9SM CLR 06/02 A3016 RMK SLP217
Observed Flight Rules
Oct-19 @ 08:00 UTC
(an hour ago)
VFR
Wind Visibility
240° at 11 knots 9 miles
Clouds
  • Clear skies
Temperature Dewpoint
6°C / 43°F 2°C / 36°F
Humidity Altimeter Pressure
76% 30.16" Hg 1021.7 hPa